sensor_id;sensor_type;location;lat;lon;timestamp;pressure;altitude;pressure_sealevel;temperature;humidity
55538;BME280;41383;51.418;7.286;2023-03-08T00:01:27;98331.13;;;3.41;78.26
55538;BME280;41383;51.418;7.286;2023-03-08T00:03:55;98324.63;;;3.36;77.88
55538;BME280;41383;51.418;7.286;2023-03-08T00:06:21;98333.34;;;3.44;78.23
55538;BME280;41383;51.418;7.286;2023-03-08T00:08:47;98325.25;;;3.44;78.28
55538;BME280;41383;51.418;7.286;2023-03-08T00:11:13;98334.25;;;3.55;77.60
55538;BME280;41383;51.418;7.286;2023-03-08T00:13:39;98326.72;;;3.57;77.64
55538;BME280;41383;51.418;7.286;2023-03-08T00:16:08;98331.28;;;3.56;77.48
55538;BME280;41383;51.418;7.286;2023-03-08T00:18:35;98336.03;;;3.44;77.74
55538;BME280;41383;51.418;7.286;2023-03-08T00:21:14;98328.47;;;3.46;78.03
55538;BME280;41383;51.418;7.286;2023-03-08T00:23:41;98325.56;;;3.47;77.97
55538;BME280;41383;51.418;7.286;2023-03-08T00:26:07;98334.19;;;3.49;77.82
55538;BME280;41383;51.418;7.286;2023-03-08T00:28:32;98338.25;;;3.52;77.49
55538;BME280;41383;51.418;7.286;2023-03-08T00:31:05;98331.94;;;3.41;77.71
55538;BME280;41383;51.418;7.286;2023-03-08T00:33:31;98330.88;;;3.42;77.89
55538;BME280;41383;51.418;7.286;2023-03-08T00:35:59;98328.19;;;3.42;77.46
55538;BME280;41383;51.418;7.286;2023-03-08T00:38:26;98322.59;;;3.49;77.99
55538;BME280;41383;51.418;7.286;2023-03-08T00:40:52;98321.03;;;3.53;77.33
55538;BME280;41383;51.418;7.286;2023-03-08T00:43:17;98317.31;;;3.59;77.57
55538;BME280;41383;51.418;7.286;2023-03-08T00:45:43;98324.59;;;3.59;77.26
55538;BME280;41383;51.418;7.286;2023-03-08T00:48:08;98328.94;;;3.60;77.69
55538;BME280;41383;51.418;7.286;2023-03-08T00:50:33;98332.66;;;3.59;78.01
55538;BME280;41383;51.418;7.286;2023-03-08T00:52:58;98335.31;;;3.54;76.82
55538;BME280;41383;51.418;7.286;2023-03-08T00:55:24;98322.63;;;3.54;77.38
55538;BME280;41383;51.418;7.286;2023-03-08T00:57:49;98318.63;;;3.57;78.09
55538;BME280;41383;51.418;7.286;2023-03-08T01:00:15;98328.03;;;3.54;77.88
55538;BME280;41383;51.418;7.286;2023-03-08T01:02:40;98323.75;;;3.58;77.78
55538;BME280;41383;51.418;7.286;2023-03-08T01:05:08;98321.34;;;3.57;77.16
55538;BME280;41383;51.418;7.286;2023-03-08T01:07:34;98324.22;;;3.50;77.71
55538;BME280;41383;51.418;7.286;2023-03-08T01:09:59;98313.44;;;3.50;78.08
55538;BME280;41383;51.418;7.286;2023-03-08T01:12:24;98308.03;;;3.50;78.25
55538;BME280;41383;51.418;7.286;2023-03-08T01:14:51;98310.25;;;3.53;78.04
55538;BME280;41383;51.418;7.286;2023-03-08T01:17:17;98312.88;;;3.48;77.75
55538;BME280;41383;51.418;7.286;2023-03-08T01:19:43;98308.56;;;3.47;78.26
55538;BME280;41383;51.418;7.286;2023-03-08T01:22:08;98306.44;;;3.49;78.01
55538;BME280;41383;51.418;7.286;2023-03-08T01:24:33;98295.94;;;3.53;77.74
55538;BME280;41383;51.418;7.286;2023-03-08T01:26:59;98302.16;;;3.53;78.08
55538;BME280;41383;51.418;7.286;2023-03-08T01:29:25;98297.06;;;3.57;78.05
55538;BME280;41383;51.418;7.286;2023-03-08T01:31:51;98293.53;;;3.51;77.75
55538;BME280;41383;51.418;7.286;2023-03-08T01:34:16;98294.00;;;3.48;77.57
55538;BME280;41383;51.418;7.286;2023-03-08T01:36:41;98284.06;;;3.48;77.98
55538;BME280;41383;51.418;7.286;2023-03-08T01:39:07;98277.53;;;3.44;77.82
55538;BME280;41383;51.418;7.286;2023-03-08T01:41:32;98275.09;;;3.43;78.01
55538;BME280;41383;51.418;7.286;2023-03-08T01:43:58;98284.88;;;3.49;77.92
55538;BME280;41383;51.418;7.286;2023-03-08T01:46:34;98283.78;;;3.50;78.14
55538;BME280;41383;51.418;7.286;2023-03-08T01:49:17;98277.25;;;3.41;78.24
55538;BME280;41383;51.418;7.286;2023-03-08T01:51:56;98274.09;;;3.49;77.86
55538;BME280;41383;51.418;7.286;2023-03-08T01:54:27;98268.75;;;3.54;78.09
55538;BME280;41383;51.418;7.286;2023-03-08T01:56:58;98261.13;;;3.46;78.18
55538;BME280;41383;51.418;7.286;2023-03-08T01:59:25;98266.00;;;3.49;78.08
55538;BME280;41383;51.418;7.286;2023-03-08T02:04:54;98258.41;;;3.46;77.90
55538;BME280;41383;51.418;7.286;2023-03-08T02:07:19;98260.06;;;3.47;78.23
55538;BME280;41383;51.418;7.286;2023-03-08T02:09:45;98247.34;;;3.42;78.25
55538;BME280;41383;51.418;7.286;2023-03-08T02:12:12;98244.91;;;3.41;78.65
55538;BME280;41383;51.418;7.286;2023-03-08T02:14:40;98237.91;;;3.40;78.45
55538;BME280;41383;51.418;7.286;2023-03-08T02:17:06;98245.22;;;3.44;77.81
55538;BME280;41383;51.418;7.286;2023-03-08T02:19:44;98238.47;;;3.42;77.72
55538;BME280;41383;51.418;7.286;2023-03-08T02:22:11;98224.47;;;3.45;78.58
55538;BME280;41383;51.418;7.286;2023-03-08T02:24:37;98213.44;;;3.46;77.81
55538;BME280;41383;51.418;7.286;2023-03-08T02:27:10;98216.34;;;3.40;77.81
55538;BME280;41383;51.418;7.286;2023-03-08T02:29:37;98220.16;;;3.44;78.23
55538;BME280;41383;51.418;7.286;2023-03-08T02:32:03;98209.91;;;3.46;77.69
55538;BME280;41383;51.418;7.286;2023-03-08T02:34:28;98204.78;;;3.44;77.96
55538;BME280;41383;51.418;7.286;2023-03-08T02:36:53;98211.03;;;3.50;77.43
55538;BME280;41383;51.418;7.286;2023-03-08T02:39:19;98209.91;;;3.46;77.33
55538;BME280;41383;51.418;7.286;2023-03-08T02:41:44;98215.84;;;3.48;78.11
55538;BME280;41383;51.418;7.286;2023-03-08T02:44:09;98208.09;;;3.52;77.51
55538;BME280;41383;51.418;7.286;2023-03-08T02:46:34;98211.03;;;3.50;77.33
55538;BME280;41383;51.418;7.286;2023-03-08T02:49:00;98217.22;;;3.45;76.81
55538;BME280;41383;51.418;7.286;2023-03-08T02:51:25;98217.22;;;3.45;77.21
55538;BME280;41383;51.418;7.286;2023-03-08T02:53:50;98209.97;;;3.51;77.39
55538;BME280;41383;51.418;7.286;2023-03-08T02:56:16;98202.91;;;3.45;76.96
55538;BME280;41383;51.418;7.286;2023-03-08T02:58:41;98211.00;;;3.45;77.59
55538;BME280;41383;51.418;7.286;2023-03-08T03:01:13;98201.34;;;3.49;77.33
55538;BME280;41383;51.418;7.286;2023-03-08T03:03:39;98204.03;;;3.49;77.13
55538;BME280;41383;51.418;7.286;2023-03-08T03:06:12;98203.22;;;3.48;77.36
55538;BME280;41383;51.418;7.286;2023-03-08T03:08:37;98195.38;;;3.47;76.93
55538;BME280;41383;51.418;7.286;2023-03-08T03:11:10;98195.91;;;3.44;77.84
55538;BME280;41383;51.418;7.286;2023-03-08T03:13:35;98196.66;;;3.39;77.66
55538;BME280;41383;51.418;7.286;2023-03-08T03:16:06;98182.91;;;3.35;77.58
55538;BME280;41383;51.418;7.286;2023-03-08T03:18:32;98185.53;;;3.30;78.19
55538;BME280;41383;51.418;7.286;2023-03-08T03:21:04;98191.53;;;3.37;78.30
55538;BME280;41383;51.418;7.286;2023-03-08T03:23:30;98189.91;;;3.36;78.22
55538;BME280;41383;51.418;7.286;2023-03-08T03:25:55;98195.84;;;3.38;77.41
55538;BME280;41383;51.418;7.286;2023-03-08T03:28:20;98191.56;;;3.43;78.19
55538;BME280;41383;51.418;7.286;2023-03-08T03:30:46;98190.00;;;3.47;77.71
55538;BME280;41383;51.418;7.286;2023-03-08T03:33:11;98173.53;;;3.43;77.90
55538;BME280;41383;51.418;7.286;2023-03-08T03:35:37;98172.16;;;3.41;77.75
55538;BME280;41383;51.418;7.286;2023-03-08T03:38:03;98173.25;;;3.40;78.07
55538;BME280;41383;51.418;7.286;2023-03-08T03:40:28;98181.81;;;3.36;77.94
55538;BME280;41383;51.418;7.286;2023-03-08T03:42:53;98174.28;;;3.38;77.56
55538;BME280;41383;51.418;7.286;2023-03-08T03:45:19;98175.94;;;3.40;77.91
55538;BME280;41383;51.418;7.286;2023-03-08T03:47:44;98173.28;;;3.45;77.40
55538;BME280;41383;51.418;7.286;2023-03-08T03:50:09;98165.19;;;3.45;76.96
55538;BME280;41383;51.418;7.286;2023-03-08T03:52:35;98163.81;;;3.42;77.48
55538;BME280;41383;51.418;7.286;2023-03-08T03:55:00;98167.31;;;3.43;77.17
55538;BME280;41383;51.418;7.286;2023-03-08T03:57:25;98174.66;;;3.47;77.44
55538;BME280;41383;51.418;7.286;2023-03-08T03:59:51;98164.63;;;3.43;77.40
55538;BME280;41383;51.418;7.286;2023-03-08T04:02:16;98148.44;;;3.37;77.00
55538;BME280;41383;51.418;7.286;2023-03-08T04:04:41;98155.44;;;3.38;77.77
55538;BME280;41383;51.418;7.286;2023-03-08T04:07:06;98153.84;;;3.43;77.62
55538;BME280;41383;51.418;7.286;2023-03-08T04:09:32;98153.03;;;3.42;77.87
55538;BME280;41383;51.418;7.286;2023-03-08T04:11:57;98152.47;;;3.40;77.59
55538;BME280;41383;51.418;7.286;2023-03-08T04:14:26;98139.47;;;3.32;77.64
55538;BME280;41383;51.418;7.286;2023-03-08T04:16:52;98132.28;;;3.37;77.78
55538;BME280;41383;51.418;7.286;2023-03-08T04:19:17;98124.19;;;3.37;78.29
55538;BME280;41383;51.418;7.286;2023-03-08T04:21:42;98116.31;;;3.31;77.98
55538;BME280;41383;51.418;7.286;2023-03-08T04:24:07;98115.28;;;3.37;78.19
55538;BME280;41383;51.418;7.286;2023-03-08T04:26:33;98123.06;;;3.33;77.88
55538;BME280;41383;51.418;7.286;2023-03-08T04:28:59;98111.56;;;3.43;78.05
55538;BME280;41383;51.418;7.286;2023-03-08T04:31:27;98116.09;;;3.37;77.98
55538;BME280;41383;51.418;7.286;2023-03-08T04:33:53;98111.50;;;3.38;77.92
55538;BME280;41383;51.418;7.286;2023-03-08T04:36:19;98103.97;;;3.40;77.51
55538;BME280;41383;51.418;7.286;2023-03-08T04:38:45;98102.06;;;3.35;78.14
55538;BME280;41383;51.418;7.286;2023-03-08T04:41:11;98105.53;;;3.31;78.23
55538;BME280;41383;51.418;7.286;2023-03-08T04:43:38;98101.75;;;3.32;77.99
55538;BME280;41383;51.418;7.286;2023-03-08T04:46:05;98096.69;;;3.35;78.00
55538;BME280;41383;51.418;7.286;2023-03-08T04:48:31;98097.75;;;3.34;77.69
55538;BME280;41383;51.418;7.286;2023-03-08T04:50:59;98089.41;;;3.36;77.68
55538;BME280;41383;51.418;7.286;2023-03-08T04:53:26;98088.28;;;3.32;77.95
55538;BME280;41383;51.418;7.286;2023-03-08T04:55:52;98081.56;;;3.29;78.18
55538;BME280;41383;51.418;7.286;2023-03-08T04:58:18;98073.47;;;3.29;77.76
55538;BME280;41383;51.418;7.286;2023-03-08T05:00:43;98077.22;;;3.28;78.06
55538;BME280;41383;51.418;7.286;2023-03-08T05:03:09;98071.56;;;3.30;77.87
55538;BME280;41383;51.418;7.286;2023-03-08T05:05:35;98067.25;;;3.29;78.23
55538;BME280;41383;51.418;7.286;2023-03-08T05:08:00;98060.56;;;3.31;78.23
55538;BME280;41383;51.418;7.286;2023-03-08T05:10:30;98062.16;;;3.32;77.36
55538;BME280;41383;51.418;7.286;2023-03-08T05:12:56;98056.78;;;3.32;78.01
55538;BME280;41383;51.418;7.286;2023-03-08T05:15:22;98058.41;;;3.33;77.79
55538;BME280;41383;51.418;7.286;2023-03-08T05:17:50;98064.34;;;3.35;77.62
55538;BME280;41383;51.418;7.286;2023-03-08T05:20:16;98054.38;;;3.36;78.02
55538;BME280;41383;51.418;7.286;2023-03-08T05:22:41;98051.59;;;3.25;77.96
55538;BME280;41383;51.418;7.286;2023-03-08T05:25:07;98042.47;;;3.26;78.06
55538;BME280;41383;51.418;7.286;2023-03-08T05:27:34;98051.28;;;3.17;77.92
55538;BME280;41383;51.418;7.286;2023-03-08T05:29:59;98038.09;;;3.15;78.44
55538;BME280;41383;51.418;7.286;2023-03-08T05:32:24;98037.28;;;3.20;78.62
55538;BME280;41383;51.418;7.286;2023-03-08T05:34:51;98043.22;;;3.22;77.96
55538;BME280;41383;51.418;7.286;2023-03-08T05:37:17;98038.09;;;3.20;78.61
55538;BME280;41383;51.418;7.286;2023-03-08T05:39:42;98037.28;;;3.20;78.43
55538;BME280;41383;51.418;7.286;2023-03-08T05:42:08;98032.38;;;3.11;78.63
55538;BME280;41383;51.418;7.286;2023-03-08T05:44:33;98022.66;;;3.05;78.94
55538;BME280;41383;51.418;7.286;2023-03-08T05:47:00;98019.47;;;3.13;78.68
55538;BME280;41383;51.418;7.286;2023-03-08T05:49:25;98014.63;;;3.10;78.85
55538;BME280;41383;51.418;7.286;2023-03-08T05:51:50;98012.19;;;3.09;78.75
55538;BME280;41383;51.418;7.286;2023-03-08T05:54:16;98012.69;;;3.06;78.60
55538;BME280;41383;51.418;7.286;2023-03-08T05:56:41;98002.56;;;2.85;78.50
55538;BME280;41383;51.418;7.286;2023-03-08T05:59:06;98002.31;;;2.87;78.56
55538;BME280;41383;51.418;7.286;2023-03-08T06:01:31;97989.09;;;2.85;78.27
55538;BME280;41383;51.418;7.286;2023-03-08T06:03:57;97992.75;;;2.68;78.69
55538;BME280;41383;51.418;7.286;2023-03-08T06:06:24;97984.06;;;2.56;79.19
55538;BME280;41383;51.418;7.286;2023-03-08T06:08:51;97980.28;;;2.57;79.13
55538;BME280;41383;51.418;7.286;2023-03-08T06:11:16;97974.25;;;2.44;78.57
55538;BME280;41383;51.418;7.286;2023-03-08T06:13:42;97981.25;;;2.45;79.23
55538;BME280;41383;51.418;7.286;2023-03-08T06:16:08;97975.41;;;2.54;79.27
55538;BME280;41383;51.418;7.286;2023-03-08T06:18:37;97970.25;;;2.47;78.76
55538;BME280;41383;51.418;7.286;2023-03-08T06:21:06;97970.03;;;2.54;78.78
55538;BME280;41383;51.418;7.286;2023-03-08T06:23:33;97958.47;;;2.53;79.04
55538;BME280;41383;51.418;7.286;2023-03-08T06:25:58;97970.03;;;2.54;78.34
55538;BME280;41383;51.418;7.286;2023-03-08T06:28:25;97960.28;;;2.48;78.98
55538;BME280;41383;51.418;7.286;2023-03-08T06:30:51;97956.97;;;2.40;79.01
55538;BME280;41383;51.418;7.286;2023-03-08T06:33:18;97945.06;;;2.31;79.22
55538;BME280;41383;51.418;7.286;2023-03-08T06:36:01;97950.56;;;2.14;80.06
55538;BME280;41383;51.418;7.286;2023-03-08T06:38:28;97945.50;;;2.17;80.31
55538;BME280;41383;51.418;7.286;2023-03-08T06:40:54;97936.41;;;1.96;80.71
55538;BME280;41383;51.418;7.286;2023-03-08T06:43:20;97928.00;;;1.87;81.69
55538;BME280;41383;51.418;7.286;2023-03-08T06:45:45;97931.44;;;1.82;81.04
55538;BME280;41383;51.418;7.286;2023-03-08T06:48:11;97929.16;;;1.96;81.63
55538;BME280;41383;51.418;7.286;2023-03-08T06:50:36;97924.38;;;2.04;81.62
55538;BME280;41383;51.418;7.286;2023-03-08T06:53:01;97910.38;;;2.02;80.76
55538;BME280;41383;51.418;7.286;2023-03-08T06:55:27;97910.91;;;1.98;81.50
55538;BME280;41383;51.418;7.286;2023-03-08T06:57:52;97903.66;;;1.99;81.63
55538;BME280;41383;51.418;7.286;2023-03-08T07:00:20;97909.88;;;2.05;80.86
55538;BME280;41383;51.418;7.286;2023-03-08T07:02:46;97910.09;;;2.26;81.07
55538;BME280;41383;51.418;7.286;2023-03-08T07:05:13;97906.44;;;2.09;81.02
55538;BME280;41383;51.418;7.286;2023-03-08T07:07:38;97903.78;;;2.15;81.17
55538;BME280;41383;51.418;7.286;2023-03-08T07:10:04;97895.69;;;2.09;80.69
55538;BME280;41383;51.418;7.286;2023-03-08T07:12:30;97893.84;;;2.15;80.46
55538;BME280;41383;51.418;7.286;2023-03-08T07:14:56;97900.25;;;2.09;80.68
55538;BME280;41383;51.418;7.286;2023-03-08T07:17:21;97892.22;;;2.14;80.96
55538;BME280;41383;51.418;7.286;2023-03-08T07:19:47;97886.44;;;2.28;80.22
55538;BME280;41383;51.418;7.286;2023-03-08T07:22:12;97883.09;;;2.15;80.30
55538;BME280;41383;51.418;7.286;2023-03-08T07:24:37;97874.03;;;2.27;80.06
55538;BME280;41383;51.418;7.286;2023-03-08T07:27:03;97879.38;;;2.21;79.63
55538;BME280;41383;51.418;7.286;2023-03-08T07:29:29;97889.63;;;2.25;79.59
55538;BME280;41383;51.418;7.286;2023-03-08T07:31:54;97873.94;;;2.16;79.93
55538;BME280;41383;51.418;7.286;2023-03-08T07:34:19;97863.09;;;2.39;80.01
55538;BME280;41383;51.418;7.286;2023-03-08T07:36:45;97866.53;;;2.29;78.76
55538;BME280;41383;51.418;7.286;2023-03-08T07:39:10;97866.53;;;2.29;79.26
55538;BME280;41383;51.418;7.286;2023-03-08T07:41:35;97864.31;;;2.20;79.65
55538;BME280;41383;51.418;7.286;2023-03-08T07:44:00;97863.88;;;2.34;79.03
55538;BME280;41383;51.418;7.286;2023-03-08T07:46:26;97852.63;;;2.42;78.58
55538;BME280;41383;51.418;7.286;2023-03-08T07:48:52;97859.91;;;2.42;78.51
55538;BME280;41383;51.418;7.286;2023-03-08T07:51:17;97865.22;;;2.31;78.15
55538;BME280;41383;51.418;7.286;2023-03-08T07:53:43;97857.97;;;2.37;78.72
55538;BME280;41383;51.418;7.286;2023-03-08T07:56:08;97865.94;;;2.21;78.98
55538;BME280;41383;51.418;7.286;2023-03-08T07:58:34;97856.97;;;2.43;78.54
55538;BME280;41383;51.418;7.286;2023-03-08T08:00:59;97847.81;;;2.44;78.83
55538;BME280;41383;51.418;7.286;2023-03-08T08:03:28;97847.38;;;2.58;78.60
55538;BME280;41383;51.418;7.286;2023-03-08T08:05:53;97842.56;;;2.65;77.74
55538;BME280;41383;51.418;7.286;2023-03-08T08:08:18;97833.88;;;2.53;78.30
55538;BME280;41383;51.418;7.286;2023-03-08T08:10:44;97831.19;;;2.53;78.28
55538;BME280;41383;51.418;7.286;2023-03-08T08:13:09;97827.69;;;2.52;78.49
55538;BME280;41383;51.418;7.286;2023-03-08T08:15:34;97812.69;;;2.62;78.02
55538;BME280;41383;51.418;7.286;2023-03-08T08:18:00;97815.59;;;2.55;78.32
55538;BME280;41383;51.418;7.286;2023-03-08T08:20:26;97816.69;;;2.59;78.24
55538;BME280;41383;51.418;7.286;2023-03-08T08:22:52;97804.31;;;2.58;78.23
55538;BME280;41383;51.418;7.286;2023-03-08T08:25:19;97803.53;;;2.19;78.98
55538;BME280;41383;51.418;7.286;2023-03-08T08:27:44;97805.44;;;2.24;79.72
55538;BME280;41383;51.418;7.286;2023-03-08T08:30:12;97800.47;;;2.49;79.53
55538;BME280;41383;51.418;7.286;2023-03-08T08:32:37;97798.88;;;2.48;78.42
55538;BME280;41383;51.418;7.286;2023-03-08T08:35:03;97788.06;;;2.37;79.32
55538;BME280;41383;51.418;7.286;2023-03-08T08:37:29;97793.56;;;2.58;79.48
55538;BME280;41383;51.418;7.286;2023-03-08T08:39:55;97781.50;;;2.71;78.59
55538;BME280;41383;51.418;7.286;2023-03-08T08:42:20;97776.13;;;2.71;78.62
55538;BME280;41383;51.418;7.286;2023-03-08T08:44:46;97770.19;;;2.69;78.33
55538;BME280;41383;51.418;7.286;2023-03-08T08:47:11;97762.38;;;2.62;78.59
55538;BME280;41383;51.418;7.286;2023-03-08T08:49:36;97760.78;;;2.72;78.36
55538;BME280;41383;51.418;7.286;2023-03-08T08:52:01;97761.56;;;2.62;78.89
55538;BME280;41383;51.418;7.286;2023-03-08T08:54:27;97751.66;;;2.78;79.15
55538;BME280;41383;51.418;7.286;2023-03-08T08:56:52;97747.94;;;2.84;78.56
55538;BME280;41383;51.418;7.286;2023-03-08T08:59:17;97747.94;;;2.84;78.04
55538;BME280;41383;51.418;7.286;2023-03-08T09:01:43;97744.41;;;2.78;78.20
55538;BME280;41383;51.418;7.286;2023-03-08T09:04:10;97740.91;;;2.78;77.81
55538;BME280;41383;51.418;7.286;2023-03-08T09:06:35;97747.63;;;2.75;78.18
55538;BME280;41383;51.418;7.286;2023-03-08T09:09:01;97739.28;;;2.77;78.50
55538;BME280;41383;51.418;7.286;2023-03-08T09:11:27;97735.75;;;2.71;78.56
55538;BME280;41383;51.418;7.286;2023-03-08T09:13:53;97736.06;;;2.80;78.21
55538;BME280;41383;51.418;7.286;2023-03-08T09:16:30;97734.75;;;2.83;78.19
55538;BME280;41383;51.418;7.286;2023-03-08T09:19:00;97732.28;;;2.81;78.55
55538;BME280;41383;51.418;7.286;2023-03-08T09:21:27;97712.66;;;2.86;78.59
55538;BME280;41383;51.418;7.286;2023-03-08T09:23:54;97707.56;;;2.89;78.55
55538;BME280;41383;51.418;7.286;2023-03-08T09:26:20;97701.78;;;2.54;79.53
55538;BME280;41383;51.418;7.286;2023-03-08T09:28:45;97704.78;;;2.68;79.15
55538;BME280;41383;51.418;7.286;2023-03-08T09:31:13;97707.50;;;2.74;79.23
55538;BME280;41383;51.418;7.286;2023-03-08T09:33:46;97700.53;;;2.78;79.10
55538;BME280;41383;51.418;7.286;2023-03-08T09:36:12;97709.66;;;2.72;78.68
55538;BME280;41383;51.418;7.286;2023-03-08T09:38:38;97698.66;;;2.78;78.77
55538;BME280;41383;51.418;7.286;2023-03-08T09:41:15;97694.59;;;2.76;78.37
55538;BME280;41383;51.418;7.286;2023-03-08T09:44:03;97698.59;;;2.63;79.29
55538;BME280;41383;51.418;7.286;2023-03-08T09:46:37;97706.94;;;2.61;78.35
55538;BME280;41383;51.418;7.286;2023-03-08T09:49:12;97697.81;;;2.73;78.91
55538;BME280;41383;51.418;7.286;2023-03-08T09:51:41;97690.53;;;2.73;79.54
55538;BME280;41383;51.418;7.286;2023-03-08T09:54:13;97700.50;;;2.67;79.65
55538;BME280;41383;51.418;7.286;2023-03-08T09:56:45;97698.91;;;2.77;79.41
55538;BME280;41383;51.418;7.286;2023-03-08T09:59:24;97684.41;;;2.88;79.55
55538;BME280;41383;51.418;7.286;2023-03-08T10:02:01;97684.44;;;2.99;78.57
55538;BME280;41383;51.418;7.286;2023-03-08T10:04:45;97673.38;;;2.85;78.87
55538;BME280;41383;51.418;7.286;2023-03-08T10:07:16;97673.66;;;2.94;78.54
55538;BME280;41383;51.418;7.286;2023-03-08T10:10:45;97676.34;;;2.88;79.16
55538;BME280;41383;51.418;7.286;2023-03-08T10:12:57;97673.38;;;2.85;78.77
55538;BME280;41383;51.418;7.286;2023-03-08T10:15:24;97669.88;;;2.89;78.63
55538;BME280;41383;51.418;7.286;2023-03-08T10:18:01;97664.25;;;2.96;78.85
55538;BME280;41383;51.418;7.286;2023-03-08T10:20:32;97661.53;;;2.80;79.22
55538;BME280;41383;51.418;7.286;2023-03-08T10:23:02;97670.44;;;2.97;78.94
55538;BME280;41383;51.418;7.286;2023-03-08T10:25:32;97662.38;;;3.02;78.27
55538;BME280;41383;51.418;7.286;2023-03-08T10:28:01;97667.22;;;3.05;77.44
55538;BME280;41383;51.418;7.286;2023-03-08T10:30:33;97654.25;;;2.86;78.34
55538;BME280;41383;51.418;7.286;2023-03-08T10:33:00;97659.13;;;2.95;78.87
55538;BME280;41383;51.418;7.286;2023-03-08T10:38:26;97662.84;;;2.83;78.52
55538;BME280;41383;51.418;7.286;2023-03-08T10:41:03;97650.00;;;3.01;78.87
55538;BME280;41383;51.418;7.286;2023-03-08T10:43:43;97633.53;;;2.97;78.68
55538;BME280;41383;51.418;7.286;2023-03-08T10:46:16;97638.66;;;3.04;79.00
55538;BME280;41383;51.418;7.286;2023-03-08T10:48:41;97627.88;;;2.94;78.92
55538;BME280;41383;51.418;7.286;2023-03-08T10:51:25;97626.00;;;2.99;79.01
55538;BME280;41383;51.418;7.286;2023-03-08T10:53:54;97606.91;;;3.17;78.49
55538;BME280;41383;51.418;7.286;2023-03-08T10:56:41;97597.75;;;3.18;78.56
55538;BME280;41383;51.418;7.286;2023-03-08T10:59:33;97604.47;;;3.25;78.01
55538;BME280;41383;51.418;7.286;2023-03-08T11:04:36;97611.75;;;3.35;78.24
55538;BME280;41383;51.418;7.286;2023-03-08T11:07:20;97614.47;;;3.35;78.15
55538;BME280;41383;51.418;7.286;2023-03-08T11:09:48;97610.69;;;3.31;78.09
55538;BME280;41383;51.418;7.286;2023-03-08T11:12:24;97604.22;;;3.37;78.14
55538;BME280;41383;51.418;7.286;2023-03-08T11:14:51;97602.06;;;3.34;77.82
55538;BME280;41383;51.418;7.286;2023-03-08T11:17:25;97615.25;;;3.41;77.77
55538;BME280;41383;51.418;7.286;2023-03-08T11:20:15;97623.06;;;3.43;78.42
55538;BME280;41383;51.418;7.286;2023-03-08T11:23:31;97614.16;;;3.42;78.41
55538;BME280;41383;51.418;7.286;2023-03-08T11:25:44;97609.63;;;3.37;78.75
55538;BME280;41383;51.418;7.286;2023-03-08T11:28:40;97611.75;;;3.41;78.65
55538;BME280;41383;51.418;7.286;2023-03-08T11:31:13;97609.06;;;3.35;78.29
55538;BME280;41383;51.418;7.286;2023-03-08T11:33:50;97603.13;;;3.38;78.63
55538;BME280;41383;51.418;7.286;2023-03-08T11:36:35;97605.28;;;3.26;78.62
55538;BME280;41383;51.418;7.286;2023-03-08T11:41:46;97590.22;;;3.35;77.99
55538;BME280;41383;51.418;7.286;2023-03-08T11:47:02;97598.28;;;3.20;78.30
55538;BME280;41383;51.418;7.286;2023-03-08T11:57:13;97592.38;;;3.23;79.19
55538;BME280;41383;51.418;7.286;2023-03-08T11:59:54;97595.84;;;3.34;78.18
55538;BME280;41383;51.418;7.286;2023-03-08T12:02:27;97599.09;;;3.20;78.39
55538;BME280;41383;51.418;7.286;2023-03-08T12:05:25;97585.34;;;3.22;78.38
55538;BME280;41383;51.418;7.286;2023-03-08T12:10:43;97598.81;;;3.32;78.71
55538;BME280;41383;51.418;7.286;2023-03-08T12:13:22;97599.09;;;3.36;78.57
55538;BME280;41383;51.418;7.286;2023-03-08T12:15:54;97586.44;;;3.36;78.38
55538;BME280;41383;51.418;7.286;2023-03-08T12:18:36;97583.47;;;3.27;78.25
55538;BME280;41383;51.418;7.286;2023-03-08T12:21:12;97579.97;;;3.32;78.60
55538;BME280;41383;51.418;7.286;2023-03-08T12:26:44;97588.88;;;3.22;77.96
55538;BME280;41383;51.418;7.286;2023-03-08T12:29:19;97579.16;;;3.32;78.66
55538;BME280;41383;51.418;7.286;2023-03-08T12:31:46;97584.28;;;3.33;78.06
55538;BME280;41383;51.418;7.286;2023-03-08T12:34:26;97576.75;;;3.35;79.16
55538;BME280;41383;51.418;7.286;2023-03-08T12:36:52;97569.75;;;3.29;78.39
55538;BME280;41383;51.418;7.286;2023-03-08T12:42:24;97554.63;;;3.38;78.85
55538;BME280;41383;51.418;7.286;2023-03-08T12:44:46;97553.59;;;3.29;78.51
55538;BME280;41383;51.418;7.286;2023-03-08T12:49:39;97548.19;;;2.98;79.67
55538;BME280;41383;51.418;7.286;2023-03-08T12:52:23;97546.56;;;3.18;80.27
55538;BME280;41383;51.418;7.286;2023-03-08T12:55:05;97552.50;;;3.25;79.82
55538;BME280;41383;51.418;7.286;2023-03-08T12:57:46;97543.88;;;3.38;79.34
55538;BME280;41383;51.418;7.286;2023-03-08T13:02:43;97535.78;;;3.28;79.60
55538;BME280;41383;51.418;7.286;2023-03-08T13:05:29;97538.47;;;3.38;79.35
55538;BME280;41383;51.418;7.286;2023-03-08T13:10:35;97536.63;;;3.08;79.56
55538;BME280;41383;51.418;7.286;2023-03-08T13:15:33;97533.66;;;2.94;79.81
55538;BME280;41383;51.418;7.286;2023-03-08T13:23:06;97534.47;;;3.15;79.48
55538;BME280;41383;51.418;7.286;2023-03-08T13:26:00;97531.50;;;3.27;80.59
55538;BME280;41383;51.418;7.286;2023-03-08T13:28:34;97531.22;;;3.39;79.56
55538;BME280;41383;51.418;7.286;2023-03-08T13:31:01;97532.53;;;3.47;79.47
55538;BME280;41383;51.418;7.286;2023-03-08T13:33:30;97530.91;;;3.46;79.40
55538;BME280;41383;51.418;7.286;2023-03-08T13:36:19;97526.06;;;3.43;78.89
55538;BME280;41383;51.418;7.286;2023-03-08T13:38:54;97528.81;;;3.27;79.09
55538;BME280;41383;51.418;7.286;2023-03-08T13:41:41;97525.56;;;3.35;79.06
55538;BME280;41383;51.418;7.286;2023-03-08T13:44:14;97523.13;;;3.29;79.98
55538;BME280;41383;51.418;7.286;2023-03-08T13:46:40;97527.72;;;3.23;80.07
55538;BME280;41383;51.418;7.286;2023-03-08T13:51:46;97524.75;;;3.35;79.55
55538;BME280;41383;51.418;7.286;2023-03-08T13:54:15;97525.00;;;3.38;78.88
55538;BME280;41383;51.418;7.286;2023-03-08T13:56:41;97526.09;;;3.32;78.52
55538;BME280;41383;51.418;7.286;2023-03-08T13:59:16;97525.56;;;3.25;79.99
55538;BME280;41383;51.418;7.286;2023-03-08T14:01:47;97506.16;;;3.33;79.63
55538;BME280;41383;51.418;7.286;2023-03-08T14:04:16;97497.03;;;3.19;79.47
55538;BME280;41383;51.418;7.286;2023-03-08T14:06:48;97492.75;;;3.02;80.09